sensor_id;sensor_type;location;lat;lon;timestamp;temperature;humidity
4279;DHT22;2153;47.744;10.580;2024-01-11T00:01:10;-6.10;99.90
4279;DHT22;2153;47.744;10.580;2024-01-11T00:03:39;-6.20;99.90
4279;DHT22;2153;47.744;10.580;2024-01-11T00:06:05;-6.30;99.90
4279;DHT22;2153;47.744;10.580;2024-01-11T00:08:32;-6.20;99.90
4279;DHT22;2153;47.744;10.580;2024-01-11T00:10:58;-6.30;99.90
4279;DHT22;2153;47.744;10.580;2024-01-11T00:13:25;-6.30;99.90
4279;DHT22;2153;47.744;10.580;2024-01-11T00:15:52;-6.20;99.90
4279;DHT22;2153;47.744;10.580;2024-01-11T00:18:19;-6.20;99.90
4279;DHT22;2153;47.744;10.580;2024-01-11T00:20:47;-6.10;99.90
4279;DHT22;2153;47.744;10.580;2024-01-11T00:23:14;-6.00;99.90
4279;DHT22;2153;47.744;10.580;2024-01-11T00:25:40;-5.90;99.90
4279;DHT22;2153;47.744;10.580;2024-01-11T00:28:07;-6.10;99.90
4279;DHT22;2153;47.744;10.580;2024-01-11T00:30:33;-6.00;99.90
4279;DHT22;2153;47.744;10.580;2024-01-11T00:33:00;-5.90;99.90
4279;DHT22;2153;47.744;10.580;2024-01-11T00:35:28;-5.90;99.90
4279;DHT22;2153;47.744;10.580;2024-01-11T00:37:56;-5.80;99.90
4279;DHT22;2153;47.744;10.580;2024-01-11T00:40:22;-5.80;99.90
4279;DHT22;2153;47.744;10.580;2024-01-11T00:42:49;-5.70;99.90
4279;DHT22;2153;47.744;10.580;2024-01-11T00:45:16;-5.70;99.90
4279;DHT22;2153;47.744;10.580;2024-01-11T00:47:43;-5.80;99.90
4279;DHT22;2153;47.744;10.580;2024-01-11T00:50:10;-5.70;99.90
4279;DHT22;2153;47.744;10.580;2024-01-11T00:52:36;-5.80;99.90
4279;DHT22;2153;47.744;10.580;2024-01-11T00:55:06;-5.80;99.90
4279;DHT22;2153;47.744;10.580;2024-01-11T00:57:32;-5.80;99.90
4279;DHT22;2153;47.744;10.580;2024-01-11T00:59:59;-5.80;99.90
4279;DHT22;2153;47.744;10.580;2024-01-11T01:02:26;-5.80;99.90
4279;DHT22;2153;47.744;10.580;2024-01-11T01:04:52;-6.00;99.90
4279;DHT22;2153;47.744;10.580;2024-01-11T01:07:19;-6.10;99.90
4279;DHT22;2153;47.744;10.580;2024-01-11T01:09:46;-6.20;99.90
4279;DHT22;2153;47.744;10.580;2024-01-11T01:12:14;-6.30;99.90
4279;DHT22;2153;47.744;10.580;2024-01-11T01:14:41;-6.30;99.90
4279;DHT22;2153;47.744;10.580;2024-01-11T01:17:07;-6.40;99.90
4279;DHT22;2153;47.744;10.580;2024-01-11T01:19:34;-6.30;99.90
4279;DHT22;2153;47.744;10.580;2024-01-11T01:22:01;-6.40;99.90
4279;DHT22;2153;47.744;10.580;2024-01-11T01:24:28;-6.30;99.90
4279;DHT22;2153;47.744;10.580;2024-01-11T01:26:55;-6.30;99.90
4279;DHT22;2153;47.744;10.580;2024-01-11T01:29:23;-6.30;99.90
4279;DHT22;2153;47.744;10.580;2024-01-11T01:31:49;-6.30;99.90
4279;DHT22;2153;47.744;10.580;2024-01-11T01:34:16;-6.30;99.90
4279;DHT22;2153;47.744;10.580;2024-01-11T01:36:43;-6.40;99.90
4279;DHT22;2153;47.744;10.580;2024-01-11T01:39:09;-6.30;99.90
4279;DHT22;2153;47.744;10.580;2024-01-11T01:41:36;-6.30;99.90
4279;DHT22;2153;47.744;10.580;2024-01-11T01:44:03;-6.30;99.90
4279;DHT22;2153;47.744;10.580;2024-01-11T01:46:31;-6.30;99.90
4279;DHT22;2153;47.744;10.580;2024-01-11T01:48:59;-6.40;99.90
4279;DHT22;2153;47.744;10.580;2024-01-11T01:51:29;-6.30;99.90
4279;DHT22;2153;47.744;10.580;2024-01-11T01:53:56;-6.50;99.90
4279;DHT22;2153;47.744;10.580;2024-01-11T01:56:24;-6.50;99.90
4279;DHT22;2153;47.744;10.580;2024-01-11T01:58:52;-6.50;99.90
4279;DHT22;2153;47.744;10.580;2024-01-11T02:01:21;-6.50;99.90
4279;DHT22;2153;47.744;10.580;2024-01-11T02:03:50;-6.70;99.90
4279;DHT22;2153;47.744;10.580;2024-01-11T02:06:18;-6.70;99.90
4279;DHT22;2153;47.744;10.580;2024-01-11T02:08:48;-6.70;99.90
4279;DHT22;2153;47.744;10.580;2024-01-11T02:11:15;-6.70;99.90
4279;DHT22;2153;47.744;10.580;2024-01-11T02:13:42;-6.80;99.90
4279;DHT22;2153;47.744;10.580;2024-01-11T02:16:11;-6.80;99.90
4279;DHT22;2153;47.744;10.580;2024-01-11T02:18:38;-6.90;99.90
4279;DHT22;2153;47.744;10.580;2024-01-11T02:21:09;-6.90;99.90
4279;DHT22;2153;47.744;10.580;2024-01-11T02:23:36;-6.90;99.90
4279;DHT22;2153;47.744;10.580;2024-01-11T02:26:08;-7.00;99.90
4279;DHT22;2153;47.744;10.580;2024-01-11T02:28:34;-7.00;99.90
4279;DHT22;2153;47.744;10.580;2024-01-11T02:31:01;-7.10;99.90
4279;DHT22;2153;47.744;10.580;2024-01-11T02:33:28;-7.00;99.90
4279;DHT22;2153;47.744;10.580;2024-01-11T02:35:54;-7.00;99.90
4279;DHT22;2153;47.744;10.580;2024-01-11T02:38:21;-7.00;99.90
4279;DHT22;2153;47.744;10.580;2024-01-11T02:40:48;-7.00;99.90
4279;DHT22;2153;47.744;10.580;2024-01-11T02:43:18;-7.00;99.90
4279;DHT22;2153;47.744;10.580;2024-01-11T02:45:44;-7.00;99.90
4279;DHT22;2153;47.744;10.580;2024-01-11T02:48:11;-7.10;99.90
4279;DHT22;2153;47.744;10.580;2024-01-11T02:50:38;-7.00;99.90
4279;DHT22;2153;47.744;10.580;2024-01-11T02:53:04;-7.00;99.90
4279;DHT22;2153;47.744;10.580;2024-01-11T02:55:31;-7.00;99.90
4279;DHT22;2153;47.744;10.580;2024-01-11T02:57:57;-7.00;99.90
4279;DHT22;2153;47.744;10.580;2024-01-11T03:00:25;-7.00;99.90
4279;DHT22;2153;47.744;10.580;2024-01-11T03:02:52;-7.10;99.90
4279;DHT22;2153;47.744;10.580;2024-01-11T03:05:18;-7.00;99.90
4279;DHT22;2153;47.744;10.580;2024-01-11T03:07:45;-7.10;99.90
4279;DHT22;2153;47.744;10.580;2024-01-11T03:10:12;-7.00;99.90
4279;DHT22;2153;47.744;10.580;2024-01-11T03:12:39;-7.20;99.90
4279;DHT22;2153;47.744;10.580;2024-01-11T03:15:07;-7.30;99.90
4279;DHT22;2153;47.744;10.580;2024-01-11T03:17:35;-7.30;99.90
4279;DHT22;2153;47.744;10.580;2024-01-11T03:20:02;-7.30;99.90
4279;DHT22;2153;47.744;10.580;2024-01-11T03:22:30;-7.20;99.90
4279;DHT22;2153;47.744;10.580;2024-01-11T03:24:56;-7.20;99.90
4279;DHT22;2153;47.744;10.580;2024-01-11T03:27:23;-7.20;99.90
4279;DHT22;2153;47.744;10.580;2024-01-11T03:29:49;-7.10;99.90
4279;DHT22;2153;47.744;10.580;2024-01-11T03:32:16;-7.10;99.90
4279;DHT22;2153;47.744;10.580;2024-01-11T03:34:44;-7.00;99.90
4279;DHT22;2153;47.744;10.580;2024-01-11T03:37:11;-7.00;99.90
4279;DHT22;2153;47.744;10.580;2024-01-11T03:39:37;-7.00;99.90
4279;DHT22;2153;47.744;10.580;2024-01-11T03:42:04;-7.00;99.90
4279;DHT22;2153;47.744;10.580;2024-01-11T03:44:31;-6.90;99.90
4279;DHT22;2153;47.744;10.580;2024-01-11T03:46:58;-6.90;99.90
4279;DHT22;2153;47.744;10.580;2024-01-11T03:49:25;-7.00;99.90
4279;DHT22;2153;47.744;10.580;2024-01-11T03:51:53;-7.00;99.90
4279;DHT22;2153;47.744;10.580;2024-01-11T03:54:19;-7.00;99.90
4279;DHT22;2153;47.744;10.580;2024-01-11T03:56:46;-7.00;99.90
4279;DHT22;2153;47.744;10.580;2024-01-11T03:59:13;-7.00;99.90
4279;DHT22;2153;47.744;10.580;2024-01-11T04:01:40;-7.00;99.90
4279;DHT22;2153;47.744;10.580;2024-01-11T04:04:07;-7.00;99.90
4279;DHT22;2153;47.744;10.580;2024-01-11T04:06:34;-7.00;99.90
4279;DHT22;2153;47.744;10.580;2024-01-11T04:09:02;-6.90;99.90
4279;DHT22;2153;47.744;10.580;2024-01-11T04:11:29;-6.90;99.90
4279;DHT22;2153;47.744;10.580;2024-01-11T04:13:56;-6.90;99.90
4279;DHT22;2153;47.744;10.580;2024-01-11T04:16:22;-6.90;99.90
4279;DHT22;2153;47.744;10.580;2024-01-11T04:18:49;-6.90;99.90
4279;DHT22;2153;47.744;10.580;2024-01-11T04:21:22;-6.90;99.90
4279;DHT22;2153;47.744;10.580;2024-01-11T04:23:50;-6.90;99.90
4279;DHT22;2153;47.744;10.580;2024-01-11T04:26:18;-6.90;99.90
4279;DHT22;2153;47.744;10.580;2024-01-11T04:28:45;-6.90;99.90
4279;DHT22;2153;47.744;10.580;2024-01-11T04:31:13;-6.90;99.90
4279;DHT22;2153;47.744;10.580;2024-01-11T04:33:40;-6.90;99.90
4279;DHT22;2153;47.744;10.580;2024-01-11T04:36:08;-6.90;99.90
4279;DHT22;2153;47.744;10.580;2024-01-11T04:38:34;-7.00;99.90
4279;DHT22;2153;47.744;10.580;2024-01-11T04:41:01;-7.00;99.90
4279;DHT22;2153;47.744;10.580;2024-01-11T04:43:29;-6.90;99.90
4279;DHT22;2153;47.744;10.580;2024-01-11T04:45:55;-6.90;99.90
4279;DHT22;2153;47.744;10.580;2024-01-11T04:48:22;-6.90;99.90
4279;DHT22;2153;47.744;10.580;2024-01-11T04:50:49;-7.00;99.90
4279;DHT22;2153;47.744;10.580;2024-01-11T04:53:15;-7.10;99.90
4279;DHT22;2153;47.744;10.580;2024-01-11T04:55:42;-7.10;99.90
4279;DHT22;2153;47.744;10.580;2024-01-11T04:58:08;-7.10;99.90
4279;DHT22;2153;47.744;10.580;2024-01-11T05:00:36;-7.00;99.90
4279;DHT22;2153;47.744;10.580;2024-01-11T05:03:03;-7.10;99.90
4279;DHT22;2153;47.744;10.580;2024-01-11T05:05:30;-7.20;99.90
4279;DHT22;2153;47.744;10.580;2024-01-11T05:07:57;-7.10;99.90
4279;DHT22;2153;47.744;10.580;2024-01-11T05:10:24;-7.10;99.90
4279;DHT22;2153;47.744;10.580;2024-01-11T05:12:50;-7.20;99.90
4279;DHT22;2153;47.744;10.580;2024-01-11T05:15:17;-7.20;99.90
4279;DHT22;2153;47.744;10.580;2024-01-11T05:17:45;-7.20;99.90
4279;DHT22;2153;47.744;10.580;2024-01-11T05:20:12;-7.20;99.90
4279;DHT22;2153;47.744;10.580;2024-01-11T05:22:38;-7.20;99.90
4279;DHT22;2153;47.744;10.580;2024-01-11T05:25:05;-7.20;99.90
4279;DHT22;2153;47.744;10.580;2024-01-11T05:27:32;-7.20;99.90
4279;DHT22;2153;47.744;10.580;2024-01-11T05:29:58;-7.30;99.90
4279;DHT22;2153;47.744;10.580;2024-01-11T05:32:25;-7.40;99.90
4279;DHT22;2153;47.744;10.580;2024-01-11T05:34:53;-7.40;99.90
4279;DHT22;2153;47.744;10.580;2024-01-11T05:37:20;-7.50;99.90
4279;DHT22;2153;47.744;10.580;2024-01-11T05:39:47;-7.50;99.90
4279;DHT22;2153;47.744;10.580;2024-01-11T05:42:13;-7.60;99.90
4279;DHT22;2153;47.744;10.580;2024-01-11T05:44:40;-7.60;99.90
4279;DHT22;2153;47.744;10.580;2024-01-11T05:47:07;-7.60;99.90
4279;DHT22;2153;47.744;10.580;2024-01-11T05:49:33;-7.50;99.90
4279;DHT22;2153;47.744;10.580;2024-01-11T05:52:01;-7.50;99.90
4279;DHT22;2153;47.744;10.580;2024-01-11T05:54:28;-7.50;99.90
4279;DHT22;2153;47.744;10.580;2024-01-11T05:56:55;-7.60;99.90
4279;DHT22;2153;47.744;10.580;2024-01-11T05:59:23;-7.60;99.90
4279;DHT22;2153;47.744;10.580;2024-01-11T06:01:50;-7.70;99.90
4279;DHT22;2153;47.744;10.580;2024-01-11T06:04:16;-7.80;99.90
4279;DHT22;2153;47.744;10.580;2024-01-11T06:06:43;-7.80;99.90
4279;DHT22;2153;47.744;10.580;2024-01-11T06:09:11;-7.70;99.90
4279;DHT22;2153;47.744;10.580;2024-01-11T06:11:38;-7.80;99.90
4279;DHT22;2153;47.744;10.580;2024-01-11T06:14:05;-7.80;99.90
4279;DHT22;2153;47.744;10.580;2024-01-11T06:16:32;-7.80;99.90
4279;DHT22;2153;47.744;10.580;2024-01-11T06:18:58;-7.80;99.90
4279;DHT22;2153;47.744;10.580;2024-01-11T06:21:25;-7.80;99.90
4279;DHT22;2153;47.744;10.580;2024-01-11T06:23:51;-7.70;99.90
4279;DHT22;2153;47.744;10.580;2024-01-11T06:26:19;-7.80;99.90
4279;DHT22;2153;47.744;10.580;2024-01-11T06:28:46;-7.90;99.90
4279;DHT22;2153;47.744;10.580;2024-01-11T06:31:13;-8.00;99.90
4279;DHT22;2153;47.744;10.580;2024-01-11T06:33:39;-8.00;99.90
4279;DHT22;2153;47.744;10.580;2024-01-11T06:36:06;-8.00;99.90
4279;DHT22;2153;47.744;10.580;2024-01-11T06:38:33;-8.00;99.90
4279;DHT22;2153;47.744;10.580;2024-01-11T06:41:00;-8.10;99.90
4279;DHT22;2153;47.744;10.580;2024-01-11T06:43:28;-8.20;99.90
4279;DHT22;2153;47.744;10.580;2024-01-11T06:45:55;-8.10;99.90
4279;DHT22;2153;47.744;10.580;2024-01-11T06:48:21;-8.00;99.90
4279;DHT22;2153;47.744;10.580;2024-01-11T06:50:48;-7.90;99.90
4279;DHT22;2153;47.744;10.580;2024-01-11T06:53:15;-7.90;99.90
4279;DHT22;2153;47.744;10.580;2024-01-11T06:55:41;-7.90;99.90
4279;DHT22;2153;47.744;10.580;2024-01-11T06:58:09;-7.80;99.90
4279;DHT22;2153;47.744;10.580;2024-01-11T07:00:37;-7.90;99.90
4279;DHT22;2153;47.744;10.580;2024-01-11T07:03:08;-7.90;99.90
4279;DHT22;2153;47.744;10.580;2024-01-11T07:05:35;-8.10;99.90
4279;DHT22;2153;47.744;10.580;2024-01-11T07:08:01;-8.10;99.90
4279;DHT22;2153;47.744;10.580;2024-01-11T07:10:28;-8.20;99.90
4279;DHT22;2153;47.744;10.580;2024-01-11T07:12:55;-8.20;99.90
4279;DHT22;2153;47.744;10.580;2024-01-11T07:15:21;-8.30;99.90
4279;DHT22;2153;47.744;10.580;2024-01-11T07:17:50;-8.40;99.90
4279;DHT22;2153;47.744;10.580;2024-01-11T07:20:18;-8.40;99.90
4279;DHT22;2153;47.744;10.580;2024-01-11T07:22:45;-8.30;99.90
4279;DHT22;2153;47.744;10.580;2024-01-11T07:25:12;-8.30;99.90
4279;DHT22;2153;47.744;10.580;2024-01-11T07:27:39;-8.20;99.90
4279;DHT22;2153;47.744;10.580;2024-01-11T07:30:07;-8.20;99.90
4279;DHT22;2153;47.744;10.580;2024-01-11T07:35:02;-8.10;99.90
4279;DHT22;2153;47.744;10.580;2024-01-11T07:37:29;-8.00;99.90
4279;DHT22;2153;47.744;10.580;2024-01-11T07:39:56;-7.90;99.90
4279;DHT22;2153;47.744;10.580;2024-01-11T07:42:23;-7.90;99.90
4279;DHT22;2153;47.744;10.580;2024-01-11T07:44:49;-7.90;99.90
4279;DHT22;2153;47.744;10.580;2024-01-11T07:47:16;-7.80;99.90
4279;DHT22;2153;47.744;10.580;2024-01-11T07:49:43;-7.70;99.90
4279;DHT22;2153;47.744;10.580;2024-01-11T07:52:11;-7.80;99.90
4279;DHT22;2153;47.744;10.580;2024-01-11T07:54:37;-7.70;99.90
4279;DHT22;2153;47.744;10.580;2024-01-11T07:57:04;-7.60;99.90
4279;DHT22;2153;47.744;10.580;2024-01-11T07:59:32;-7.60;99.90
4279;DHT22;2153;47.744;10.580;2024-01-11T08:02:01;-7.50;99.90
4279;DHT22;2153;47.744;10.580;2024-01-11T08:04:27;-7.50;99.90
4279;DHT22;2153;47.744;10.580;2024-01-11T08:06:54;-7.40;99.90
4279;DHT22;2153;47.744;10.580;2024-01-11T08:09:23;-7.60;99.90
4279;DHT22;2153;47.744;10.580;2024-01-11T08:11:49;-7.60;99.90
4279;DHT22;2153;47.744;10.580;2024-01-11T08:14:17;-7.50;99.90
4279;DHT22;2153;47.744;10.580;2024-01-11T08:16:44;-7.50;99.90
4279;DHT22;2153;47.744;10.580;2024-01-11T08:19:11;-7.40;99.90
4279;DHT22;2153;47.744;10.580;2024-01-11T08:21:39;-7.50;99.90
4279;DHT22;2153;47.744;10.580;2024-01-11T08:24:07;-7.60;99.90
4279;DHT22;2153;47.744;10.580;2024-01-11T08:26:35;-7.60;99.90
4279;DHT22;2153;47.744;10.580;2024-01-11T08:29:01;-7.40;99.90
4279;DHT22;2153;47.744;10.580;2024-01-11T08:31:30;-7.30;99.90
4279;DHT22;2153;47.744;10.580;2024-01-11T08:33:58;-7.40;99.90
4279;DHT22;2153;47.744;10.580;2024-01-11T08:36:24;-7.70;99.90
4279;DHT22;2153;47.744;10.580;2024-01-11T08:38:56;-8.10;99.90
4279;DHT22;2153;47.744;10.580;2024-01-11T08:41:23;-7.90;99.90
4279;DHT22;2153;47.744;10.580;2024-01-11T08:43:51;-7.90;99.90
4279;DHT22;2153;47.744;10.580;2024-01-11T08:46:23;-8.10;99.90
4279;DHT22;2153;47.744;10.580;2024-01-11T08:48:50;-7.80;99.90
4279;DHT22;2153;47.744;10.580;2024-01-11T08:51:17;-7.60;99.90
4279;DHT22;2153;47.744;10.580;2024-01-11T08:53:44;-7.90;99.90
4279;DHT22;2153;47.744;10.580;2024-01-11T08:56:10;-7.80;99.90
4279;DHT22;2153;47.744;10.580;2024-01-11T08:58:37;-7.70;99.90
4279;DHT22;2153;47.744;10.580;2024-01-11T09:01:07;-7.70;99.90
4279;DHT22;2153;47.744;10.580;2024-01-11T09:03:34;-7.70;99.90
4279;DHT22;2153;47.744;10.580;2024-01-11T09:06:01;-7.50;99.90
4279;DHT22;2153;47.744;10.580;2024-01-11T09:08:28;-7.20;99.90
4279;DHT22;2153;47.744;10.580;2024-01-11T09:10:55;-7.20;99.90
4279;DHT22;2153;47.744;10.580;2024-01-11T09:13:24;-7.00;99.90
4279;DHT22;2153;47.744;10.580;2024-01-11T09:15:51;-6.80;99.90
4279;DHT22;2153;47.744;10.580;2024-01-11T09:18:19;-6.90;99.90
4279;DHT22;2153;47.744;10.580;2024-01-11T09:20:46;-6.90;99.90
4279;DHT22;2153;47.744;10.580;2024-01-11T09:23:14;-6.80;99.90
4279;DHT22;2153;47.744;10.580;2024-01-11T09:25:41;-6.90;99.90
4279;DHT22;2153;47.744;10.580;2024-01-11T09:28:07;-6.80;99.90
4279;DHT22;2153;47.744;10.580;2024-01-11T09:30:34;-6.90;99.90
4279;DHT22;2153;47.744;10.580;2024-01-11T09:33:01;-6.60;99.90
4279;DHT22;2153;47.744;10.580;2024-01-11T09:35:29;-6.50;99.90
4279;DHT22;2153;47.744;10.580;2024-01-11T09:37:55;-6.30;99.90
4279;DHT22;2153;47.744;10.580;2024-01-11T09:40:22;-6.10;99.90
4279;DHT22;2153;47.744;10.580;2024-01-11T09:42:49;-6.20;99.90
4279;DHT22;2153;47.744;10.580;2024-01-11T09:45:16;-6.10;99.90
4279;DHT22;2153;47.744;10.580;2024-01-11T09:47:44;-6.00;99.90
4279;DHT22;2153;47.744;10.580;2024-01-11T09:50:13;-6.00;99.90
4279;DHT22;2153;47.744;10.580;2024-01-11T09:52:45;-5.90;99.90
4279;DHT22;2153;47.744;10.580;2024-01-11T09:55:13;-5.70;99.90
4279;DHT22;2153;47.744;10.580;2024-01-11T09:57:47;-5.60;99.90
4279;DHT22;2153;47.744;10.580;2024-01-11T10:00:17;-5.70;99.90
4279;DHT22;2153;47.744;10.580;2024-01-11T10:02:45;-5.80;99.90
4279;DHT22;2153;47.744;10.580;2024-01-11T10:05:12;-6.00;99.90
4279;DHT22;2153;47.744;10.580;2024-01-11T10:07:40;-6.40;99.90
4279;DHT22;2153;47.744;10.580;2024-01-11T10:10:08;-6.30;99.90
4279;DHT22;2153;47.744;10.580;2024-01-11T10:12:35;-6.20;99.90
4279;DHT22;2153;47.744;10.580;2024-01-11T10:15:05;-6.00;99.90
4279;DHT22;2153;47.744;10.580;2024-01-11T10:17:35;-5.70;99.90
4279;DHT22;2153;47.744;10.580;2024-01-11T10:20:01;-5.80;99.90
4279;DHT22;2153;47.744;10.580;2024-01-11T10:22:28;-5.80;99.90
4279;DHT22;2153;47.744;10.580;2024-01-11T10:25:09;-5.80;99.90
4279;DHT22;2153;47.744;10.580;2024-01-11T10:27:36;-5.60;99.90
4279;DHT22;2153;47.744;10.580;2024-01-11T10:30:04;-5.60;99.90
4279;DHT22;2153;47.744;10.580;2024-01-11T10:32:33;-5.50;99.90
4279;DHT22;2153;47.744;10.580;2024-01-11T10:35:00;-5.90;99.90
4279;DHT22;2153;47.744;10.580;2024-01-11T10:37:29;-5.80;99.90
4279;DHT22;2153;47.744;10.580;2024-01-11T10:39:58;-5.90;99.90
4279;DHT22;2153;47.744;10.580;2024-01-11T10:42:27;-6.00;99.90
4279;DHT22;2153;47.744;10.580;2024-01-11T10:44:59;-5.70;99.90
4279;DHT22;2153;47.744;10.580;2024-01-11T10:47:30;-6.30;99.90
4279;DHT22;2153;47.744;10.580;2024-01-11T10:49:57;-6.10;99.90
4279;DHT22;2153;47.744;10.580;2024-01-11T10:52:28;-5.80;99.90
4279;DHT22;2153;47.744;10.580;2024-01-11T10:54:59;-5.60;99.90
4279;DHT22;2153;47.744;10.580;2024-01-11T10:57:29;-5.50;99.90
4279;DHT22;2153;47.744;10.580;2024-01-11T10:59:57;-5.30;99.90
4279;DHT22;2153;47.744;10.580;2024-01-11T11:02:28;-5.20;99.90
4279;DHT22;2153;47.744;10.580;2024-01-11T11:04:55;-5.10;99.90
4279;DHT22;2153;47.744;10.580;2024-01-11T11:07:23;-4.80;99.90
4279;DHT22;2153;47.744;10.580;2024-01-11T11:09:52;-4.60;99.90
4279;DHT22;2153;47.744;10.580;2024-01-11T11:12:20;-4.60;99.90
4279;DHT22;2153;47.744;10.580;2024-01-11T11:14:50;-4.50;99.90
4279;DHT22;2153;47.744;10.580;2024-01-11T11:17:18;-4.30;99.90
4279;DHT22;2153;47.744;10.580;2024-01-11T11:19:44;-4.60;99.90
4279;DHT22;2153;47.744;10.580;2024-01-11T11:22:13;-4.70;99.90
4279;DHT22;2153;47.744;10.580;2024-01-11T11:24:40;-4.70;99.90
4279;DHT22;2153;47.744;10.580;2024-01-11T11:27:07;-4.40;99.90
4279;DHT22;2153;47.744;10.580;2024-01-11T11:29:34;-3.80;99.90
4279;DHT22;2153;47.744;10.580;2024-01-11T11:32:02;-3.50;99.90
4279;DHT22;2153;47.744;10.580;2024-01-11T11:34:43;-3.50;99.90
4279;DHT22;2153;47.744;10.580;2024-01-11T11:37:10;-3.50;99.90
4279;DHT22;2153;47.744;10.580;2024-01-11T11:39:37;-3.40;99.90
4279;DHT22;2153;47.744;10.580;2024-01-11T11:42:04;-3.40;99.90
4279;DHT22;2153;47.744;10.580;2024-01-11T11:44:32;-3.20;99.90
4279;DHT22;2153;47.744;10.580;2024-01-11T11:47:19;-3.10;99.90
4279;DHT22;2153;47.744;10.580;2024-01-11T11:50:03;-3.10;99.90
4279;DHT22;2153;47.744;10.580;2024-01-11T11:52:32;-3.40;99.90
4279;DHT22;2153;47.744;10.580;2024-01-11T11:54:59;-3.20;99.90
4279;DHT22;2153;47.744;10.580;2024-01-11T11:57:27;-3.60;99.90
4279;DHT22;2153;47.744;10.580;2024-01-11T11:59:55;-3.60;99.90
4279;DHT22;2153;47.744;10.580;2024-01-11T12:02:25;-4.50;99.90
4279;DHT22;2153;47.744;10.580;2024-01-11T12:04:52;-5.00;99.90
4279;DHT22;2153;47.744;10.580;2024-01-11T12:07:20;-5.10;99.90
4279;DHT22;2153;47.744;10.580;2024-01-11T12:09:46;-5.20;99.90
4279;DHT22;2153;47.744;10.580;2024-01-11T12:12:13;-4.80;99.90
4279;DHT22;2153;47.744;10.580;2024-01-11T12:14:41;-4.90;99.90
4279;DHT22;2153;47.744;10.580;2024-01-11T12:17:08;-4.90;99.90
4279;DHT22;2153;47.744;10.580;2024-01-11T12:19:36;-4.40;99.90
4279;DHT22;2153;47.744;10.580;2024-01-11T12:22:03;-4.70;99.90
4279;DHT22;2153;47.744;10.580;2024-01-11T12:24:30;-4.90;99.90
4279;DHT22;2153;47.744;10.580;2024-01-11T12:26:59;-4.80;99.90
4279;DHT22;2153;47.744;10.580;2024-01-11T12:29:28;-4.10;99.90
4279;DHT22;2153;47.744;10.580;2024-01-11T12:31:56;-4.10;99.90
4279;DHT22;2153;47.744;10.580;2024-01-11T12:34:23;-4.00;99.90
4279;DHT22;2153;47.744;10.580;2024-01-11T12:36:52;-4.10;99.90
4279;DHT22;2153;47.744;10.580;2024-01-11T12:39:20;-4.00;99.90
4279;DHT22;2153;47.744;10.580;2024-01-11T12:41:49;-3.90;99.90
4279;DHT22;2153;47.744;10.580;2024-01-11T12:44:17;-3.80;99.90
4279;DHT22;2153;47.744;10.580;2024-01-11T12:46:44;-3.90;99.90
4279;DHT22;2153;47.744;10.580;2024-01-11T12:49:11;-3.80;99.90
4279;DHT22;2153;47.744;10.580;2024-01-11T12:51:37;-3.80;99.90
4279;DHT22;2153;47.744;10.580;2024-01-11T12:54:10;-4.10;99.90
4279;DHT22;2153;47.744;10.580;2024-01-11T12:56:40;-4.00;99.90
4279;DHT22;2153;47.744;10.580;2024-01-11T12:59:08;-3.80;99.90
4279;DHT22;2153;47.744;10.580;2024-01-11T13:01:35;-4.20;99.90
4279;DHT22;2153;47.744;10.580;2024-01-11T13:04:02;-4.10;99.90
4279;DHT22;2153;47.744;10.580;2024-01-11T13:06:29;-4.00;99.90
4279;DHT22;2153;47.744;10.580;2024-01-11T13:08:56;-4.00;99.90
4279;DHT22;2153;47.744;10.580;2024-01-11T13:11:24;-4.20;99.90
4279;DHT22;2153;47.744;10.580;2024-01-11T13:13:51;-4.00;99.90
4279;DHT22;2153;47.744;10.580;2024-01-11T13:16:18;-4.10;99.90
4279;DHT22;2153;47.744;10.580;2024-01-11T13:18:45;-4.30;99.90
4279;DHT22;2153;47.744;10.580;2024-01-11T13:21:11;-4.50;99.90
4279;DHT22;2153;47.744;10.580;2024-01-11T13:23:38;-4.40;99.90
4279;DHT22;2153;47.744;10.580;2024-01-11T13:26:05;-4.10;99.90
4279;DHT22;2153;47.744;10.580;2024-01-11T13:28:34;-3.90;99.90
4279;DHT22;2153;47.744;10.580;2024-01-11T13:31:01;-4.10;99.90
4279;DHT22;2153;47.744;10.580;2024-01-11T13:33:28;-4.10;99.90
4279;DHT22;2153;47.744;10.580;2024-01-11T13:35:55;-4.00;99.90
4279;DHT22;2153;47.744;10.580;2024-01-11T13:38:22;-3.80;99.90
4279;DHT22;2153;47.744;10.580;2024-01-11T13:40:48;-3.60;99.90
4279;DHT22;2153;47.744;10.580;2024-01-11T13:43:15;-3.50;99.90
4279;DHT22;2153;47.744;10.580;2024-01-11T13:45:44;-3.40;99.90
4279;DHT22;2153;47.744;10.580;2024-01-11T13:48:10;-3.80;99.90
4279;DHT22;2153;47.744;10.580;2024-01-11T13:50:37;-3.70;99.90
4279;DHT22;2153;47.744;10.580;2024-01-11T13:53:04;-4.20;99.90
4279;DHT22;2153;47.744;10.580;2024-01-11T13:55:31;-4.40;99.90
4279;DHT22;2153;47.744;10.580;2024-01-11T13:58:03;-4.20;99.90
4279;DHT22;2153;47.744;10.580;2024-01-11T14:00:29;-4.30;99.90
4279;DHT22;2153;47.744;10.580;2024-01-11T14:02:57;-4.10;99.90
4279;DHT22;2153;47.744;10.580;2024-01-11T14:05:24;-4.00;99.90
4279;DHT22;2153;47.744;10.580;2024-01-11T14:07:51;-3.80;99.90
4279;DHT22;2153;47.744;10.580;2024-01-11T14:10:23;-3.90;99.90
4279;DHT22;2153;47.744;10.580;2024-01-11T14:12:49;-4.00;99.90
4279;DHT22;2153;47.744;10.580;2024-01-11T14:15:16;-4.20;99.90
4279;DHT22;2153;47.744;10.580;2024-01-11T14:17:43;-4.40;99.90
4279;DHT22;2153;47.744;10.580;2024-01-11T14:20:11;-4.70;99.90
4279;DHT22;2153;47.744;10.580;2024-01-11T14:22:40;-4.70;99.90
4279;DHT22;2153;47.744;10.580;2024-01-11T14:25:07;-4.60;99.90
4279;DHT22;2153;47.744;10.580;2024-01-11T14:27:34;-4.40;99.90
4279;DHT22;2153;47.744;10.580;2024-01-11T14:30:01;-4.30;99.90
4279;DHT22;2153;47.744;10.580;2024-01-11T14:32:30;-4.40;99.90
4279;DHT22;2153;47.744;10.580;2024-01-11T14:34:57;-4.20;99.90
4279;DHT22;2153;47.744;10.580;2024-01-11T14:37:30;-4.30;99.90
4279;DHT22;2153;47.744;10.580;2024-01-11T14:39:57;-4.70;99.90
4279;DHT22;2153;47.744;10.580;2024-01-11T14:42:24;-4.60;99.90
4279;DHT22;2153;47.744;10.580;2024-01-11T14:44:51;-4.50;99.90
4279;DHT22;2153;47.744;10.580;2024-01-11T14:47:18;-4.60;99.90
4279;DHT22;2153;47.744;10.580;2024-01-11T14:49:45;-4.60;99.90
4279;DHT22;2153;47.744;10.580;2024-01-11T14:52:11;-4.60;99.90
4279;DHT22;2153;47.744;10.580;2024-01-11T14:54:40;-4.50;99.90
4279;DHT22;2153;47.744;10.580;2024-01-11T14:57:07;-4.50;99.90
4279;DHT22;2153;47.744;10.580;2024-01-11T14:59:34;-4.50;99.90
4279;DHT22;2153;47.744;10.580;2024-01-11T15:02:01;-5.00;99.90
4279;DHT22;2153;47.744;10.580;2024-01-11T15:04:28;-5.00;99.90
4279;DHT22;2153;47.744;10.580;2024-01-11T15:06:54;-5.00;99.90
4279;DHT22;2153;47.744;10.580;2024-01-11T15:09:21;-4.90;99.90
4279;DHT22;2153;47.744;10.580;2024-01-11T15:11:49;-4.90;99.90
4279;DHT22;2153;47.744;10.580;2024-01-11T15:14:16;-4.70;99.90
4279;DHT22;2153;47.744;10.580;2024-01-11T15:16:43;-4.60;99.90
4279;DHT22;2153;47.744;10.580;2024-01-11T15:19:11;-4.70;99.90
4279;DHT22;2153;47.744;10.580;2024-01-11T15:21:38;-4.70;99.90
4279;DHT22;2153;47.744;10.580;2024-01-11T15:24:06;-4.70;99.90
4279;DHT22;2153;47.744;10.580;2024-01-11T15:26:32;-4.70;99.90
4279;DHT22;2153;47.744;10.580;2024-01-11T15:29:01;-4.70;99.90
4279;DHT22;2153;47.744;10.580;2024-01-11T15:31:27;-4.60;99.90
4279;DHT22;2153;47.744;10.580;2024-01-11T15:33:54;-4.60;99.90
4279;DHT22;2153;47.744;10.580;2024-01-11T15:36:21;-4.70;99.90
4279;DHT22;2153;47.744;10.580;2024-01-11T15:38:48;-4.70;99.90
4279;DHT22;2153;47.744;10.580;2024-01-11T15:41:15;-4.70;99.90
4279;DHT22;2153;47.744;10.580;2024-01-11T15:43:41;-4.70;99.90
4279;DHT22;2153;47.744;10.580;2024-01-11T15:46:10;-4.70;99.90
4279;DHT22;2153;47.744;10.580;2024-01-11T15:48:37;-4.80;99.90